sensor_id;sensor_type;location;lat;lon;timestamp;pressure;altitude;pressure_sealevel;temperature
27826;BMP280;15077;49.704;9.908;2023-04-20T00:01:52;98235.47;;;10.66
27826;BMP280;15077;49.704;9.908;2023-04-20T00:04:19;98238.00;;;10.66
27826;BMP280;15077;49.704;9.908;2023-04-20T00:06:44;98234.72;;;10.64
27826;BMP280;15077;49.704;9.908;2023-04-20T00:09:16;98232.13;;;10.65
27826;BMP280;15077;49.704;9.908;2023-04-20T00:11:44;98230.47;;;10.64
27826;BMP280;15077;49.704;9.908;2023-04-20T00:14:12;98227.06;;;10.65
27826;BMP280;15077;49.704;9.908;2023-04-20T00:16:43;98219.44;;;10.65
27826;BMP280;15077;49.704;9.908;2023-04-20T00:19:11;98217.78;;;10.64
27826;BMP280;15077;49.704;9.908;2023-04-20T00:21:39;98215.25;;;10.64
27826;BMP280;15077;49.704;9.908;2023-04-20T00:24:06;98210.19;;;10.64
27826;BMP280;15077;49.704;9.908;2023-04-20T00:26:35;98203.50;;;10.64
27826;BMP280;15077;49.704;9.908;2023-04-20T00:29:01;98206.84;;;10.64
27826;BMP280;15077;49.704;9.908;2023-04-20T00:31:27;98200.94;;;10.64
27826;BMP280;15077;49.704;9.908;2023-04-20T00:33:53;98193.34;;;10.64
27826;BMP280;15077;49.704;9.908;2023-04-20T00:36:18;98204.31;;;10.64
27826;BMP280;15077;49.704;9.908;2023-04-20T00:38:46;98196.63;;;10.65
27826;BMP280;15077;49.704;9.908;2023-04-20T00:41:14;98189.91;;;10.64
27826;BMP280;15077;49.704;9.908;2023-04-20T00:43:53;98187.38;;;10.64
27826;BMP280;15077;49.704;9.908;2023-04-20T00:46:20;98189.03;;;10.65
27826;BMP280;15077;49.704;9.908;2023-04-20T00:48:49;98178.84;;;10.67
27826;BMP280;15077;49.704;9.908;2023-04-20T00:51:15;98180.56;;;10.66
27826;BMP280;15077;49.704;9.908;2023-04-20T00:53:41;98169.50;;;10.67
27826;BMP280;15077;49.704;9.908;2023-04-20T00:56:07;98174.53;;;10.69
27826;BMP280;15077;49.704;9.908;2023-04-20T00:58:33;98169.44;;;10.69
27826;BMP280;15077;49.704;9.908;2023-04-20T01:00:59;98159.25;;;10.70
27826;BMP280;15077;49.704;9.908;2023-04-20T01:03:25;98163.44;;;10.71
27826;BMP280;15077;49.704;9.908;2023-04-20T01:05:51;98156.66;;;10.72
27826;BMP280;15077;49.704;9.908;2023-04-20T01:08:17;98155.84;;;10.71
27826;BMP280;15077;49.704;9.908;2023-04-20T01:10:44;98153.31;;;10.71
27826;BMP280;15077;49.704;9.908;2023-04-20T01:13:10;98151.72;;;10.69
27826;BMP280;15077;49.704;9.908;2023-04-20T01:15:39;98147.47;;;10.69
27826;BMP280;15077;49.704;9.908;2023-04-20T01:18:04;98151.72;;;10.69
27826;BMP280;15077;49.704;9.908;2023-04-20T01:20:31;98142.41;;;10.69
27826;BMP280;15077;49.704;9.908;2023-04-20T01:22:57;98146.56;;;10.70
27826;BMP280;15077;49.704;9.908;2023-04-20T01:25:23;98138.16;;;10.70
27826;BMP280;15077;49.704;9.908;2023-04-20T01:27:48;98141.50;;;10.70
27826;BMP280;15077;49.704;9.908;2023-04-20T01:30:14;98128.78;;;10.72
27826;BMP280;15077;49.704;9.908;2023-04-20T01:32:42;98125.41;;;10.71
27826;BMP280;15077;49.704;9.908;2023-04-20T01:35:08;98125.41;;;10.71
27826;BMP280;15077;49.704;9.908;2023-04-20T01:37:35;98116.94;;;10.72
27826;BMP280;15077;49.704;9.908;2023-04-20T01:40:02;98117.75;;;10.73
27826;BMP280;15077;49.704;9.908;2023-04-20T01:42:28;98111.03;;;10.72
27826;BMP280;15077;49.704;9.908;2023-04-20T01:44:54;98115.28;;;10.71
27826;BMP280;15077;49.704;9.908;2023-04-20T01:47:20;98106.88;;;10.71
27826;BMP280;15077;49.704;9.908;2023-04-20T01:49:46;98111.88;;;10.72
27826;BMP280;15077;49.704;9.908;2023-04-20T01:52:11;98104.28;;;10.72
27826;BMP280;15077;49.704;9.908;2023-04-20T01:54:37;98099.13;;;10.74
27826;BMP280;15077;49.704;9.908;2023-04-20T01:57:03;98099.13;;;10.74
27826;BMP280;15077;49.704;9.908;2023-04-20T01:59:28;98097.34;;;10.76
27826;BMP280;15077;49.704;9.908;2023-04-20T02:01:54;98097.28;;;10.77
27826;BMP280;15077;49.704;9.908;2023-04-20T02:04:21;98097.28;;;10.77
27826;BMP280;15077;49.704;9.908;2023-04-20T02:06:46;98101.47;;;10.78
27826;BMP280;15077;49.704;9.908;2023-04-20T02:09:12;98105.66;;;10.79
27826;BMP280;15077;49.704;9.908;2023-04-20T02:11:38;98100.56;;;10.79
27826;BMP280;15077;49.704;9.908;2023-04-20T02:14:03;98096.28;;;10.81
27826;BMP280;15077;49.704;9.908;2023-04-20T02:16:30;98092.03;;;10.82
27826;BMP280;15077;49.704;9.908;2023-04-20T02:18:56;98088.63;;;10.83
27826;BMP280;15077;49.704;9.908;2023-04-20T02:21:22;98086.88;;;10.83
27826;BMP280;15077;49.704;9.908;2023-04-20T02:23:48;98085.16;;;10.84
27826;BMP280;15077;49.704;9.908;2023-04-20T02:26:14;98089.31;;;10.86
27826;BMP280;15077;49.704;9.908;2023-04-20T02:28:41;98087.63;;;10.85
27826;BMP280;15077;49.704;9.908;2023-04-20T02:31:07;98087.63;;;10.85
27826;BMP280;15077;49.704;9.908;2023-04-20T02:33:33;98088.56;;;10.84
27826;BMP280;15077;49.704;9.908;2023-04-20T02:35:59;98080.09;;;10.84
27826;BMP280;15077;49.704;9.908;2023-04-20T02:38:25;98078.34;;;10.86
27826;BMP280;15077;49.704;9.908;2023-04-20T02:40:51;98080.03;;;10.85
27826;BMP280;15077;49.704;9.908;2023-04-20T02:43:17;98082.63;;;10.84
27826;BMP280;15077;49.704;9.908;2023-04-20T02:45:44;98075.03;;;10.84
27826;BMP280;15077;49.704;9.908;2023-04-20T02:48:10;98072.56;;;10.82
27826;BMP280;15077;49.704;9.908;2023-04-20T02:50:36;98065.00;;;10.81
27826;BMP280;15077;49.704;9.908;2023-04-20T02:53:03;98065.06;;;10.79
27826;BMP280;15077;49.704;9.908;2023-04-20T02:55:30;98065.16;;;10.78
27826;BMP280;15077;49.704;9.908;2023-04-20T02:57:55;98058.50;;;10.75
27826;BMP280;15077;49.704;9.908;2023-04-20T03:00:21;98054.31;;;10.74
27826;BMP280;15077;49.704;9.908;2023-04-20T03:02:47;98057.72;;;10.73
27826;BMP280;15077;49.704;9.908;2023-04-20T03:05:13;98051.03;;;10.72
27826;BMP280;15077;49.704;9.908;2023-04-20T03:07:39;98049.38;;;10.71
27826;BMP280;15077;49.704;9.908;2023-04-20T03:10:09;98054.50;;;10.70
27826;BMP280;15077;49.704;9.908;2023-04-20T03:12:34;98057.03;;;10.70
27826;BMP280;15077;49.704;9.908;2023-04-20T03:15:02;98051.97;;;10.70
27826;BMP280;15077;49.704;9.908;2023-04-20T03:17:30;98047.78;;;10.69
27826;BMP280;15077;49.704;9.908;2023-04-20T03:19:56;98055.31;;;10.70
27826;BMP280;15077;49.704;9.908;2023-04-20T03:22:22;98057.84;;;10.70
27826;BMP280;15077;49.704;9.908;2023-04-20T03:24:48;98052.78;;;10.70
27826;BMP280;15077;49.704;9.908;2023-04-20T03:27:13;98052.78;;;10.70
27826;BMP280;15077;49.704;9.908;2023-04-20T03:29:39;98049.44;;;10.70
27826;BMP280;15077;49.704;9.908;2023-04-20T03:32:07;98050.25;;;10.70
27826;BMP280;15077;49.704;9.908;2023-04-20T03:34:33;98046.09;;;10.69
27826;BMP280;15077;49.704;9.908;2023-04-20T03:36:59;98048.63;;;10.69
27826;BMP280;15077;49.704;9.908;2023-04-20T03:39:25;98046.91;;;10.70
27826;BMP280;15077;49.704;9.908;2023-04-20T03:41:51;98042.72;;;10.69
27826;BMP280;15077;49.704;9.908;2023-04-20T03:44:17;98047.72;;;10.70
27826;BMP280;15077;49.704;9.908;2023-04-20T03:46:43;98043.56;;;10.69
27826;BMP280;15077;49.704;9.908;2023-04-20T03:49:11;98042.66;;;10.70
27826;BMP280;15077;49.704;9.908;2023-04-20T03:51:37;98041.91;;;10.68
27826;BMP280;15077;49.704;9.908;2023-04-20T03:54:03;98054.56;;;10.68
27826;BMP280;15077;49.704;9.908;2023-04-20T03:56:30;98050.50;;;10.64
27826;BMP280;15077;49.704;9.908;2023-04-20T03:58:56;98047.22;;;10.63
27826;BMP280;15077;49.704;9.908;2023-04-20T04:01:22;98049.03;;;10.59
27826;BMP280;15077;49.704;9.908;2023-04-20T04:03:49;98040.81;;;10.54
27826;BMP280;15077;49.704;9.908;2023-04-20T04:06:17;98036.69;;;10.52
27826;BMP280;15077;49.704;9.908;2023-04-20T04:08:48;98023.25;;;10.50
27826;BMP280;15077;49.704;9.908;2023-04-20T04:11:14;98029.28;;;10.47
27826;BMP280;15077;49.704;9.908;2023-04-20T04:13:40;98028.47;;;10.47
27826;BMP280;15077;49.704;9.908;2023-04-20T04:16:06;98031.88;;;10.46
27826;BMP280;15077;49.704;9.908;2023-04-20T04:18:32;98031.94;;;10.44
27826;BMP280;15077;49.704;9.908;2023-04-20T04:20:58;98028.59;;;10.44
27826;BMP280;15077;49.704;9.908;2023-04-20T04:23:24;98026.94;;;10.43
27826;BMP280;15077;49.704;9.908;2023-04-20T04:25:49;98029.47;;;10.43
27826;BMP280;15077;49.704;9.908;2023-04-20T04:28:15;98021.00;;;10.44
27826;BMP280;15077;49.704;9.908;2023-04-20T04:30:41;98014.25;;;10.43
27826;BMP280;15077;49.704;9.908;2023-04-20T04:33:07;98009.13;;;10.44
27826;BMP280;15077;49.704;9.908;2023-04-20T04:35:34;98009.84;;;10.48
27826;BMP280;15077;49.704;9.908;2023-04-20T04:38:00;98006.41;;;10.49
27826;BMP280;15077;49.704;9.908;2023-04-20T04:40:26;98008.94;;;10.49
27826;BMP280;15077;49.704;9.908;2023-04-20T04:42:52;98012.38;;;10.48
27826;BMP280;15077;49.704;9.908;2023-04-20T04:45:18;98021.00;;;10.44
27826;BMP280;15077;49.704;9.908;2023-04-20T04:47:44;98018.72;;;10.38
27826;BMP280;15077;49.704;9.908;2023-04-20T04:50:13;98020.63;;;10.33
27826;BMP280;15077;49.704;9.908;2023-04-20T04:52:39;98026.00;;;10.25
27826;BMP280;15077;49.704;9.908;2023-04-20T04:55:05;98025.44;;;10.17
27826;BMP280;15077;49.704;9.908;2023-04-20T04:57:33;98024.81;;;10.13
27826;BMP280;15077;49.704;9.908;2023-04-20T04:59:59;98030.13;;;10.07
27826;BMP280;15077;49.704;9.908;2023-04-20T05:02:25;98033.72;;;10.01
27826;BMP280;15077;49.704;9.908;2023-04-20T05:04:51;98037.25;;;9.97
27826;BMP280;15077;49.704;9.908;2023-04-20T05:07:16;98036.56;;;9.94
27826;BMP280;15077;49.704;9.908;2023-04-20T05:09:42;98040.88;;;9.90
27826;BMP280;15077;49.704;9.908;2023-04-20T05:12:08;98039.34;;;9.86
27826;BMP280;15077;49.704;9.908;2023-04-20T05:14:34;98044.53;;;9.83
27826;BMP280;15077;49.704;9.908;2023-04-20T05:17:00;98036.94;;;9.83
27826;BMP280;15077;49.704;9.908;2023-04-20T05:19:26;98036.19;;;9.81
27826;BMP280;15077;49.704;9.908;2023-04-20T05:21:52;98047.13;;;9.82
27826;BMP280;15077;49.704;9.908;2023-04-20T05:24:17;98042.88;;;9.82
27826;BMP280;15077;49.704;9.908;2023-04-20T05:26:44;98050.47;;;9.82
27826;BMP280;15077;49.704;9.908;2023-04-20T05:29:11;98049.59;;;9.83
27826;BMP280;15077;49.704;9.908;2023-04-20T05:31:37;98053.78;;;9.84
27826;BMP280;15077;49.704;9.908;2023-04-20T05:34:02;98051.25;;;9.84
27826;BMP280;15077;49.704;9.908;2023-04-20T05:36:28;98050.34;;;9.85
27826;BMP280;15077;49.704;9.908;2023-04-20T05:38:55;98041.88;;;9.86
27826;BMP280;15077;49.704;9.908;2023-04-20T05:41:21;98051.94;;;9.88
27826;BMP280;15077;49.704;9.908;2023-04-20T05:43:53;98060.28;;;9.90
27826;BMP280;15077;49.704;9.908;2023-04-20T05:46:19;98053.53;;;9.90
27826;BMP280;15077;49.704;9.908;2023-04-20T05:48:45;98047.56;;;9.91
27826;BMP280;15077;49.704;9.908;2023-04-20T05:51:11;98047.56;;;9.91
27826;BMP280;15077;49.704;9.908;2023-04-20T05:53:37;98045.81;;;9.93
27826;BMP280;15077;49.704;9.908;2023-04-20T05:56:03;98049.22;;;9.94
27826;BMP280;15077;49.704;9.908;2023-04-20T05:58:32;98053.44;;;9.93
27826;BMP280;15077;49.704;9.908;2023-04-20T06:00:58;98053.44;;;9.93
27826;BMP280;15077;49.704;9.908;2023-04-20T06:03:23;98054.28;;;9.92
27826;BMP280;15077;49.704;9.908;2023-04-20T06:05:49;98057.63;;;9.94
27826;BMP280;15077;49.704;9.908;2023-04-20T06:08:16;98062.56;;;9.97
27826;BMP280;15077;49.704;9.908;2023-04-20T06:10:43;98056.56;;;10.00
27826;BMP280;15077;49.704;9.908;2023-04-20T06:13:09;98061.56;;;10.01
27826;BMP280;15077;49.704;9.908;2023-04-20T06:15:35;98060.56;;;10.05
27826;BMP280;15077;49.704;9.908;2023-04-20T06:18:01;98058.78;;;10.07
27826;BMP280;15077;49.704;9.908;2023-04-20T06:20:27;98057.81;;;10.11
27826;BMP280;15077;49.704;9.908;2023-04-20T06:22:53;98062.81;;;10.13
27826;BMP280;15077;49.704;9.908;2023-04-20T06:25:18;98067.88;;;10.13
27826;BMP280;15077;49.704;9.908;2023-04-20T06:27:44;98057.75;;;10.13
27826;BMP280;15077;49.704;9.908;2023-04-20T06:30:11;98062.88;;;10.11
27826;BMP280;15077;49.704;9.908;2023-04-20T06:32:39;98055.28;;;10.11
27826;BMP280;15077;49.704;9.908;2023-04-20T06:35:06;98061.94;;;10.14
27826;BMP280;15077;49.704;9.908;2023-04-20T06:37:32;98048.44;;;10.13
27826;BMP280;15077;49.704;9.908;2023-04-20T06:39:57;98058.50;;;10.15
27826;BMP280;15077;49.704;9.908;2023-04-20T06:42:23;98059.22;;;10.18
27826;BMP280;15077;49.704;9.908;2023-04-20T06:44:49;98054.91;;;10.20
27826;BMP280;15077;49.704;9.908;2023-04-20T06:47:15;98058.06;;;10.25
27826;BMP280;15077;49.704;9.908;2023-04-20T06:49:41;98055.41;;;10.28
27826;BMP280;15077;49.704;9.908;2023-04-20T06:52:07;98051.00;;;10.33
27826;BMP280;15077;49.704;9.908;2023-04-20T06:54:33;98054.06;;;10.41
27826;BMP280;15077;49.704;9.908;2023-04-20T06:56:59;98047.00;;;10.47
27826;BMP280;15077;49.704;9.908;2023-04-20T06:59:25;98040.00;;;10.54
27826;BMP280;15077;49.704;9.908;2023-04-20T07:01:51;98045.63;;;10.60
27826;BMP280;15077;49.704;9.908;2023-04-20T07:04:17;98053.03;;;10.64
27826;BMP280;15077;49.704;9.908;2023-04-20T07:06:42;98049.50;;;10.68
27826;BMP280;15077;49.704;9.908;2023-04-20T07:09:08;98046.84;;;10.71
27826;BMP280;15077;49.704;9.908;2023-04-20T07:11:34;98050.91;;;10.75
27826;BMP280;15077;49.704;9.908;2023-04-20T07:14:00;98054.94;;;10.79
27826;BMP280;15077;49.704;9.908;2023-04-20T07:16:26;98041.25;;;10.83
27826;BMP280;15077;49.704;9.908;2023-04-20T07:18:51;98031.72;;;10.88
27826;BMP280;15077;49.704;9.908;2023-04-20T07:21:17;98030.84;;;10.89
27826;BMP280;15077;49.704;9.908;2023-04-20T07:23:43;98034.91;;;10.93
27826;BMP280;15077;49.704;9.908;2023-04-20T07:26:09;98030.31;;;11.01
27826;BMP280;15077;49.704;9.908;2023-04-20T07:28:34;98029.31;;;11.05
27826;BMP280;15077;49.704;9.908;2023-04-20T07:31:01;98026.56;;;11.10
27826;BMP280;15077;49.704;9.908;2023-04-20T07:33:26;98031.38;;;11.15
27826;BMP280;15077;49.704;9.908;2023-04-20T07:35:54;98031.19;;;11.20
27826;BMP280;15077;49.704;9.908;2023-04-20T07:38:20;98034.31;;;11.25
27826;BMP280;15077;49.704;9.908;2023-04-20T07:40:46;98040.78;;;11.32
27826;BMP280;15077;49.704;9.908;2023-04-20T07:43:11;98036.31;;;11.37
27826;BMP280;15077;49.704;9.908;2023-04-20T07:45:40;98036.88;;;11.43
27826;BMP280;15077;49.704;9.908;2023-04-20T07:48:07;98026.56;;;11.48
27826;BMP280;15077;49.704;9.908;2023-04-20T07:50:36;98029.44;;;11.59
27826;BMP280;15077;49.704;9.908;2023-04-20T07:53:02;98030.06;;;11.63
27826;BMP280;15077;49.704;9.908;2023-04-20T07:55:28;98031.47;;;11.69
27826;BMP280;15077;49.704;9.908;2023-04-20T07:57:54;98035.38;;;11.76
27826;BMP280;15077;49.704;9.908;2023-04-20T08:00:20;98042.66;;;11.83
27826;BMP280;15077;49.704;9.908;2023-04-20T08:02:47;98040.56;;;11.91
27826;BMP280;15077;49.704;9.908;2023-04-20T08:05:13;98036.13;;;11.96
27826;BMP280;15077;49.704;9.908;2023-04-20T08:07:38;98037.50;;;12.03
27826;BMP280;15077;49.704;9.908;2023-04-20T08:10:06;98030.25;;;12.12
27826;BMP280;15077;49.704;9.908;2023-04-20T08:12:32;98032.41;;;12.20
27826;BMP280;15077;49.704;9.908;2023-04-20T08:14:58;98030.31;;;12.28
27826;BMP280;15077;49.704;9.908;2023-04-20T08:17:26;98026.44;;;12.38
27826;BMP280;15077;49.704;9.908;2023-04-20T08:19:52;98029.56;;;12.43
27826;BMP280;15077;49.704;9.908;2023-04-20T08:22:18;98029.31;;;12.49
27826;BMP280;15077;49.704;9.908;2023-04-20T08:24:44;98027.34;;;12.54
27826;BMP280;15077;49.704;9.908;2023-04-20T08:27:10;98017.63;;;12.61
27826;BMP280;15077;49.704;9.908;2023-04-20T08:29:38;98014.78;;;12.67
27826;BMP280;15077;49.704;9.908;2023-04-20T08:32:04;98018.09;;;12.69
27826;BMP280;15077;49.704;9.908;2023-04-20T08:34:34;98013.56;;;12.74
27826;BMP280;15077;49.704;9.908;2023-04-20T08:36:59;98016.69;;;12.79
27826;BMP280;15077;49.704;9.908;2023-04-20T08:39:26;98013.16;;;12.83
27826;BMP280;15077;49.704;9.908;2023-04-20T08:41:51;98013.06;;;12.85
27826;BMP280;15077;49.704;9.908;2023-04-20T08:44:21;98017.03;;;12.90
27826;BMP280;15077;49.704;9.908;2023-04-20T08:46:48;98013.44;;;12.94
27826;BMP280;15077;49.704;9.908;2023-04-20T08:49:15;98018.38;;;12.97
27826;BMP280;15077;49.704;9.908;2023-04-20T08:51:43;98022.38;;;13.01
27826;BMP280;15077;49.704;9.908;2023-04-20T08:54:10;98021.41;;;13.04
27826;BMP280;15077;49.704;9.908;2023-04-20T08:56:39;98017.91;;;13.06
27826;BMP280;15077;49.704;9.908;2023-04-20T08:59:06;98016.91;;;13.08
27826;BMP280;15077;49.704;9.908;2023-04-20T09:01:36;98020.84;;;13.14
27826;BMP280;15077;49.704;9.908;2023-04-20T09:04:22;98020.69;;;13.17
27826;BMP280;15077;49.704;9.908;2023-04-20T09:06:54;98017.91;;;13.21
27826;BMP280;15077;49.704;9.908;2023-04-20T09:09:22;98016.03;;;13.25
27826;BMP280;15077;49.704;9.908;2023-04-20T09:12:06;98009.88;;;13.29
27826;BMP280;15077;49.704;9.908;2023-04-20T09:14:46;98008.75;;;13.34
27826;BMP280;15077;49.704;9.908;2023-04-20T09:17:14;98006.84;;;13.38
27826;BMP280;15077;49.704;9.908;2023-04-20T09:19:43;97994.72;;;13.43
27826;BMP280;15077;49.704;9.908;2023-04-20T09:22:09;97997.09;;;13.46
27826;BMP280;15077;49.704;9.908;2023-04-20T09:24:36;98000.28;;;13.49
27826;BMP280;15077;49.704;9.908;2023-04-20T09:27:17;97994.31;;;13.50
27826;BMP280;15077;49.704;9.908;2023-04-20T09:29:55;97997.84;;;13.48
27826;BMP280;15077;49.704;9.908;2023-04-20T09:32:26;97997.66;;;13.51
27826;BMP280;15077;49.704;9.908;2023-04-20T09:34:53;97996.94;;;13.49
27826;BMP280;15077;49.704;9.908;2023-04-20T09:37:19;97990.75;;;13.53
27826;BMP280;15077;49.704;9.908;2023-04-20T09:39:45;97994.22;;;13.52
27826;BMP280;15077;49.704;9.908;2023-04-20T09:42:15;97999.16;;;13.55
27826;BMP280;15077;49.704;9.908;2023-04-20T09:44:41;97994.63;;;13.59
27826;BMP280;15077;49.704;9.908;2023-04-20T09:47:17;97991.91;;;13.62
27826;BMP280;15077;49.704;9.908;2023-04-20T09:49:45;97988.94;;;13.70
27826;BMP280;15077;49.704;9.908;2023-04-20T09:52:15;97992.06;;;13.75
27826;BMP280;15077;49.704;9.908;2023-04-20T09:54:43;97977.28;;;13.81
27826;BMP280;15077;49.704;9.908;2023-04-20T09:57:12;97985.41;;;13.88
27826;BMP280;15077;49.704;9.908;2023-04-20T09:59:42;97985.06;;;13.94
27826;BMP280;15077;49.704;9.908;2023-04-20T10:02:10;97964.31;;;14.00
27826;BMP280;15077;49.704;9.908;2023-04-20T10:04:36;97967.25;;;14.09
27826;BMP280;15077;49.704;9.908;2023-04-20T10:07:02;97962.34;;;14.20
27826;BMP280;15077;49.704;9.908;2023-04-20T10:09:31;97970.03;;;14.34
27826;BMP280;15077;49.704;9.908;2023-04-20T10:12:07;97961.69;;;14.46
27826;BMP280;15077;49.704;9.908;2023-04-20T10:14:33;97951.22;;;14.50
27826;BMP280;15077;49.704;9.908;2023-04-20T10:17:06;97955.13;;;14.55
27826;BMP280;15077;49.704;9.908;2023-04-20T10:19:45;97956.59;;;14.59
27826;BMP280;15077;49.704;9.908;2023-04-20T10:22:27;97950.22;;;14.66
27826;BMP280;15077;49.704;9.908;2023-04-20T10:25:00;97941.47;;;14.70
27826;BMP280;15077;49.704;9.908;2023-04-20T10:27:27;97942.66;;;14.79
27826;BMP280;15077;49.704;9.908;2023-04-20T10:29:53;97938.84;;;14.86
27826;BMP280;15077;49.704;9.908;2023-04-20T10:32:32;97933.47;;;14.90
27826;BMP280;15077;49.704;9.908;2023-04-20T10:35:07;97920.53;;;14.93
27826;BMP280;15077;49.704;9.908;2023-04-20T10:37:34;97926.44;;;14.94
27826;BMP280;15077;49.704;9.908;2023-04-20T10:40:01;97928.09;;;14.95
27826;BMP280;15077;49.704;9.908;2023-04-20T10:42:27;97921.25;;;14.95
27826;BMP280;15077;49.704;9.908;2023-04-20T10:44:54;97910.13;;;14.96
27826;BMP280;15077;49.704;9.908;2023-04-20T10:47:32;97910.13;;;14.96
27826;BMP280;15077;49.704;9.908;2023-04-20T10:50:13;97908.28;;;14.98
27826;BMP280;15077;49.704;9.908;2023-04-20T10:52:41;97902.09;;;15.02
27826;BMP280;15077;49.704;9.908;2023-04-20T10:55:23;97906.75;;;15.09
27826;BMP280;15077;49.704;9.908;2023-04-20T10:57:50;97897.34;;;15.10
27826;BMP280;15077;49.704;9.908;2023-04-20T11:00:21;97905.75;;;15.12
27826;BMP280;15077;49.704;9.908;2023-04-20T11:02:52;97896.25;;;15.14
27826;BMP280;15077;49.704;9.908;2023-04-20T11:05:20;97896.16;;;15.15
27826;BMP280;15077;49.704;9.908;2023-04-20T11:07:58;97888.41;;;15.17
27826;BMP280;15077;49.704;9.908;2023-04-20T11:10:37;97882.47;;;15.16
27826;BMP280;15077;49.704;9.908;2023-04-20T11:13:04;97887.53;;;15.18
27826;BMP280;15077;49.704;9.908;2023-04-20T11:15:34;97877.84;;;15.23
27826;BMP280;15077;49.704;9.908;2023-04-20T11:18:10;97877.84;;;15.23
27826;BMP280;15077;49.704;9.908;2023-04-20T11:20:57;97872.72;;;15.23
27826;BMP280;15077;49.704;9.908;2023-04-20T11:23:24;97870.38;;;15.20
27826;BMP280;15077;49.704;9.908;2023-04-20T11:25:55;97864.56;;;15.18
27826;BMP280;15077;49.704;9.908;2023-04-20T11:28:22;97855.16;;;15.18
27826;BMP280;15077;49.704;9.908;2023-04-20T11:30:49;97855.78;;;15.22
27826;BMP280;15077;49.704;9.908;2023-04-20T11:33:26;97849.75;;;15.23
27826;BMP280;15077;49.704;9.908;2023-04-20T11:35:56;97851.41;;;15.24
27826;BMP280;15077;49.704;9.908;2023-04-20T11:38:33;97854.16;;;15.21
27826;BMP280;15077;49.704;9.908;2023-04-20T11:41:00;97845.00;;;15.17
27826;BMP280;15077;49.704;9.908;2023-04-20T11:43:34;97839.19;;;15.01
27826;BMP280;15077;49.704;9.908;2023-04-20T11:46:00;97846.47;;;15.07
27826;BMP280;15077;49.704;9.908;2023-04-20T11:48:30;97829.16;;;15.12
27826;BMP280;15077;49.704;9.908;2023-04-20T11:50:57;97834.97;;;15.14
27826;BMP280;15077;49.704;9.908;2023-04-20T11:53:22;97828.97;;;15.15
27826;BMP280;15077;49.704;9.908;2023-04-20T11:55:48;97827.22;;;15.15
27826;BMP280;15077;49.704;9.908;2023-04-20T11:58:14;97826.16;;;15.19
27826;BMP280;15077;49.704;9.908;2023-04-20T12:00:40;97822.59;;;15.22
27826;BMP280;15077;49.704;9.908;2023-04-20T12:03:06;97833.53;;;15.24
27826;BMP280;15077;49.704;9.908;2023-04-20T12:05:32;97830.06;;;15.25
27826;BMP280;15077;49.704;9.908;2023-04-20T12:07:58;97830.88;;;15.25
27826;BMP280;15077;49.704;9.908;2023-04-20T12:10:23;97835.19;;;15.25
27826;BMP280;15077;49.704;9.908;2023-04-20T12:12:49;97837.84;;;15.23
27826;BMP280;15077;49.704;9.908;2023-04-20T12:15:15;97829.44;;;15.21
27826;BMP280;15077;49.704;9.908;2023-04-20T12:17:41;97826.06;;;15.21
27826;BMP280;15077;49.704;9.908;2023-04-20T12:20:07;97822.72;;;15.20
27826;BMP280;15077;49.704;9.908;2023-04-20T12:22:36;97829.44;;;15.21
27826;BMP280;15077;49.704;9.908;2023-04-20T12:25:02;97818.41;;;15.21
27826;BMP280;15077;49.704;9.908;2023-04-20T12:27:28;97818.41;;;15.21
27826;BMP280;15077;49.704;9.908;2023-04-20T12:29:54;97815.94;;;15.19
27826;BMP280;15077;49.704;9.908;2023-04-20T12:32:20;97815.22;;;15.17
27826;BMP280;15077;49.704;9.908;2023-04-20T12:34:46;97819.56;;;15.15
27826;BMP280;15077;49.704;9.908;2023-04-20T12:37:11;97819.84;;;15.11
27826;BMP280;15077;49.704;9.908;2023-04-20T12:39:39;97825.25;;;15.06
27826;BMP280;15077;49.704;9.908;2023-04-20T12:42:04;97824.63;;;15.03
27826;BMP280;15077;49.704;9.908;2023-04-20T12:44:30;97825.72;;;14.99
27826;BMP280;15077;49.704;9.908;2023-04-20T12:46:56;97824.91;;;14.99
27826;BMP280;15077;49.704;9.908;2023-04-20T12:49:22;97826.81;;;14.95
27826;BMP280;15077;49.704;9.908;2023-04-20T12:51:47;97839.06;;;14.90
27826;BMP280;15077;49.704;9.908;2023-04-20T12:54:13;97841.88;;;14.86
27826;BMP280;15077;49.704;9.908;2023-04-20T12:56:39;97843.81;;;14.82
27826;BMP280;15077;49.704;9.908;2023-04-20T12:59:05;97842.34;;;14.78
27826;BMP280;15077;49.704;9.908;2023-04-20T13:01:30;97851.19;;;14.73
27826;BMP280;15077;49.704;9.908;2023-04-20T13:03:56;97849.19;;;14.64
27826;BMP280;15077;49.704;9.908;2023-04-20T13:06:22;97851.50;;;14.55
27826;BMP280;15077;49.704;9.908;2023-04-20T13:08:47;97845.81;;;14.50
27826;BMP280;15077;49.704;9.908;2023-04-20T13:11:14;97849.09;;;14.38
27826;BMP280;15077;49.704;9.908;2023-04-20T13:13:41;97849.47;;;14.32
27826;BMP280;15077;49.704;9.908;2023-04-20T13:16:07;97844.56;;;14.29
27826;BMP280;15077;49.704;9.908;2023-04-20T13:18:33;97848.00;;;14.28
27826;BMP280;15077;49.704;9.908;2023-04-20T13:20:59;97845.53;;;14.26
27826;BMP280;15077;49.704;9.908;2023-04-20T13:23:25;97846.38;;;14.27
27826;BMP280;15077;49.704;9.908;2023-04-20T13:25:51;97846.38;;;14.27
27826;BMP280;15077;49.704;9.908;2023-04-20T13:28:17;97854.13;;;14.25
27826;BMP280;15077;49.704;9.908;2023-04-20T13:30:43;97850.72;;;14.25
27826;BMP280;15077;49.704;9.908;2023-04-20T13:33:10;97846.66;;;14.22
27826;BMP280;15077;49.704;9.908;2023-04-20T13:35:36;97851.94;;;14.19
27826;BMP280;15077;49.704;9.908;2023-04-20T13:38:03;97855.47;;;14.17
27826;BMP280;15077;49.704;9.908;2023-04-20T13:40:29;97846.44;;;14.11
27826;BMP280;15077;49.704;9.908;2023-04-20T13:42:55;97846.78;;;14.06
27826;BMP280;15077;49.704;9.908;2023-04-20T13:45:23;97853.06;;;14.00
27826;BMP280;15077;49.704;9.908;2023-04-20T13:47:49;97852.47;;;13.95
27826;BMP280;15077;49.704;9.908;2023-04-20T13:50:14;97851.94;;;13.90
27826;BMP280;15077;49.704;9.908;2023-04-20T13:52:43;97854.66;;;13.87
27826;BMP280;15077;49.704;9.908;2023-04-20T13:55:09;97854.13;;;13.82
27826;BMP280;15077;49.704;9.908;2023-04-20T13:57:35;97854.25;;;13.79
27826;BMP280;15077;49.704;9.908;2023-04-20T14:00:02;97857.06;;;13.75
27826;BMP280;15077;49.704;9.908;2023-04-20T14:02:28;97846.25;;;13.71
27826;BMP280;15077;49.704;9.908;2023-04-20T14:04:54;97854.16;;;13.67
27826;BMP280;15077;49.704;9.908;2023-04-20T14:07:20;97854.22;;;13.65
27826;BMP280;15077;49.704;9.908;2023-04-20T14:09:46;97853.41;;;13.65